sensor_id;sensor_type;location;lat;lon;timestamp;pressure;altitude;pressure_sealevel;temperature;humidity
44131;BME280;29792;48.726;9.248;2022-11-20T00:00:03;96386.25;;;6.05;100.00
44131;BME280;29792;48.726;9.248;2022-11-20T00:02:28;96387.16;;;6.04;100.00
44131;BME280;29792;48.726;9.248;2022-11-20T00:04:54;96390.72;;;6.01;100.00
44131;BME280;29792;48.726;9.248;2022-11-20T00:07:19;96388.19;;;6.01;100.00
44131;BME280;29792;48.726;9.248;2022-11-20T00:09:44;96395.94;;;6.00;100.00
44131;BME280;29792;48.726;9.248;2022-11-20T00:12:10;96387.50;;;5.99;100.00
44131;BME280;29792;48.726;9.248;2022-11-20T00:14:35;96394.44;;;5.97;100.00
44131;BME280;29792;48.726;9.248;2022-11-20T00:17:00;96390.38;;;5.95;100.00
44131;BME280;29792;48.726;9.248;2022-11-20T00:19:26;96395.56;;;5.93;100.00
44131;BME280;29792;48.726;9.248;2022-11-20T00:21:51;96391.38;;;5.92;100.00
44131;BME280;29792;48.726;9.248;2022-11-20T00:24:19;96395.78;;;5.90;100.00
44131;BME280;29792;48.726;9.248;2022-11-20T00:26:44;96391.63;;;5.89;100.00
44131;BME280;29792;48.726;9.248;2022-11-20T00:29:09;96391.78;;;5.86;100.00
44131;BME280;29792;48.726;9.248;2022-11-20T00:31:35;96390.16;;;5.85;100.00
44131;BME280;29792;48.726;9.248;2022-11-20T00:34:00;96399.53;;;5.85;100.00
44131;BME280;29792;48.726;9.248;2022-11-20T00:36:27;96396.16;;;5.84;100.00
44131;BME280;29792;48.726;9.248;2022-11-20T00:38:57;96394.44;;;5.85;100.00
44131;BME280;29792;48.726;9.248;2022-11-20T00:41:24;96386.00;;;5.84;100.00
44131;BME280;29792;48.726;9.248;2022-11-20T00:43:51;96392.03;;;5.83;100.00
44131;BME280;29792;48.726;9.248;2022-11-20T00:46:19;96388.53;;;5.84;100.00
44131;BME280;29792;48.726;9.248;2022-11-20T00:48:45;96397.94;;;5.84;100.00
44131;BME280;29792;48.726;9.248;2022-11-20T00:51:15;96393.75;;;5.83;100.00
44131;BME280;29792;48.726;9.248;2022-11-20T00:53:40;96397.22;;;5.82;100.00
44131;BME280;29792;48.726;9.248;2022-11-20T00:56:09;96400.56;;;5.82;100.00
44131;BME280;29792;48.726;9.248;2022-11-20T00:58:36;96400.56;;;5.82;100.00
44131;BME280;29792;48.726;9.248;2022-11-20T01:01:23;96397.22;;;5.82;100.00
44131;BME280;29792;48.726;9.248;2022-11-20T01:03:53;96408.19;;;5.82;100.00
44131;BME280;29792;48.726;9.248;2022-11-20T01:06:24;96402.31;;;5.82;100.00
44131;BME280;29792;48.726;9.248;2022-11-20T01:08:50;96412.56;;;5.80;100.00
44131;BME280;29792;48.726;9.248;2022-11-20T01:11:21;96410.03;;;5.80;100.00
44131;BME280;29792;48.726;9.248;2022-11-20T01:13:49;96410.03;;;5.80;100.00
44131;BME280;29792;48.726;9.248;2022-11-20T01:16:17;96405.75;;;5.81;100.00
44131;BME280;29792;48.726;9.248;2022-11-20T01:18:46;96408.19;;;5.82;100.00
44131;BME280;29792;48.726;9.248;2022-11-20T01:21:15;96409.94;;;5.82;100.00
44131;BME280;29792;48.726;9.248;2022-11-20T01:23:42;96409.94;;;5.82;100.00
44131;BME280;29792;48.726;9.248;2022-11-20T01:26:10;96418.56;;;5.79;100.00
44131;BME280;29792;48.726;9.248;2022-11-20T01:28:36;96422.25;;;5.75;100.00
44131;BME280;29792;48.726;9.248;2022-11-20T01:31:10;96422.47;;;5.72;100.00
44131;BME280;29792;48.726;9.248;2022-11-20T01:33:36;96417.59;;;5.69;100.00
44131;BME280;29792;48.726;9.248;2022-11-20T01:36:06;96418.63;;;5.66;100.00
44131;BME280;29792;48.726;9.248;2022-11-20T01:38:32;96417.91;;;5.64;100.00
44131;BME280;29792;48.726;9.248;2022-11-20T01:40:57;96417.09;;;5.64;100.00
44131;BME280;29792;48.726;9.248;2022-11-20T01:43:23;96408.78;;;5.62;100.00
44131;BME280;29792;48.726;9.248;2022-11-20T01:45:56;96406.34;;;5.60;100.00
44131;BME280;29792;48.726;9.248;2022-11-20T01:48:26;96404.03;;;5.57;100.00
44131;BME280;29792;48.726;9.248;2022-11-20T01:50:54;96407.59;;;5.55;100.00
44131;BME280;29792;48.726;9.248;2022-11-20T01:53:24;96398.56;;;5.51;100.00
44131;BME280;29792;48.726;9.248;2022-11-20T01:55:56;96404.56;;;5.50;100.00
44131;BME280;29792;48.726;9.248;2022-11-20T01:58:28;96397.25;;;5.45;100.00
44131;BME280;29792;48.726;9.248;2022-11-20T02:00:55;96404.28;;;5.42;100.00
44131;BME280;29792;48.726;9.248;2022-11-20T02:03:20;96407.84;;;5.39;100.00
44131;BME280;29792;48.726;9.248;2022-11-20T02:06:04;96410.56;;;5.36;100.00
44131;BME280;29792;48.726;9.248;2022-11-20T02:08:32;96409.28;;;5.30;100.00
44131;BME280;29792;48.726;9.248;2022-11-20T02:10:57;96404.41;;;5.27;100.00
44131;BME280;29792;48.726;9.248;2022-11-20T02:13:22;96414.78;;;5.24;100.00
44131;BME280;29792;48.726;9.248;2022-11-20T02:16:16;96407.38;;;5.21;100.00
44131;BME280;29792;48.726;9.248;2022-11-20T02:18:44;96400.78;;;5.19;100.00
44131;BME280;29792;48.726;9.248;2022-11-20T02:21:37;96407.69;;;5.17;100.00
44131;BME280;29792;48.726;9.248;2022-11-20T02:24:15;96414.50;;;5.16;100.00
44131;BME280;29792;48.726;9.248;2022-11-20T02:26:57;96411.03;;;5.17;100.00
44131;BME280;29792;48.726;9.248;2022-11-20T02:29:26;96411.03;;;5.17;100.00
44131;BME280;29792;48.726;9.248;2022-11-20T02:31:55;96418.66;;;5.17;100.00
44131;BME280;29792;48.726;9.248;2022-11-20T02:34:21;96415.22;;;5.18;100.00
44131;BME280;29792;48.726;9.248;2022-11-20T02:36:48;96411.88;;;5.18;100.00
44131;BME280;29792;48.726;9.248;2022-11-20T02:39:15;96413.59;;;5.17;100.00
44131;BME280;29792;48.726;9.248;2022-11-20T02:41:42;96416.13;;;5.17;100.00
44131;BME280;29792;48.726;9.248;2022-11-20T02:44:07;96406.06;;;5.16;100.00
44131;BME280;29792;48.726;9.248;2022-11-20T02:46:33;96414.59;;;5.15;100.00
44131;BME280;29792;48.726;9.248;2022-11-20T02:48:58;96417.13;;;5.15;100.00
44131;BME280;29792;48.726;9.248;2022-11-20T02:51:23;96416.41;;;5.13;100.00
44131;BME280;29792;48.726;9.248;2022-11-20T02:53:49;96418.97;;;5.13;100.00
44131;BME280;29792;48.726;9.248;2022-11-20T02:56:15;96418.16;;;5.12;100.00
44131;BME280;29792;48.726;9.248;2022-11-20T02:58:40;96421.59;;;5.11;100.00
44131;BME280;29792;48.726;9.248;2022-11-20T03:01:05;96424.25;;;5.10;100.00
44131;BME280;29792;48.726;9.248;2022-11-20T03:03:31;96426.91;;;5.08;100.00
44131;BME280;29792;48.726;9.248;2022-11-20T03:05:58;96426.91;;;5.08;100.00
44131;BME280;29792;48.726;9.248;2022-11-20T03:08:24;96424.34;;;5.08;100.00
44131;BME280;29792;48.726;9.248;2022-11-20T03:10:49;96419.28;;;5.08;100.00
44131;BME280;29792;48.726;9.248;2022-11-20T03:13:14;96421.00;;;5.08;100.00
44131;BME280;29792;48.726;9.248;2022-11-20T03:15:39;96417.66;;;5.07;100.00
44131;BME280;29792;48.726;9.248;2022-11-20T03:18:05;96417.66;;;5.07;100.00
44131;BME280;29792;48.726;9.248;2022-11-20T03:20:32;96420.81;;;5.11;100.00
44131;BME280;29792;48.726;9.248;2022-11-20T03:22:58;96419.88;;;5.12;100.00
44131;BME280;29792;48.726;9.248;2022-11-20T03:25:23;96413.06;;;5.12;100.00
44131;BME280;29792;48.726;9.248;2022-11-20T03:27:49;96403.72;;;5.13;100.00
44131;BME280;29792;48.726;9.248;2022-11-20T03:30:14;96411.16;;;5.16;100.00
44131;BME280;29792;48.726;9.248;2022-11-20T03:32:40;96402.72;;;5.15;100.00
44131;BME280;29792;48.726;9.248;2022-11-20T03:35:06;96411.16;;;5.16;100.00
44131;BME280;29792;48.726;9.248;2022-11-20T03:37:31;96406.88;;;5.16;100.00
44131;BME280;29792;48.726;9.248;2022-11-20T03:39:57;96405.97;;;5.17;100.00
44131;BME280;29792;48.726;9.248;2022-11-20T03:42:22;96411.63;;;5.21;100.00
44131;BME280;29792;48.726;9.248;2022-11-20T03:45:06;96401.38;;;5.22;100.00
44131;BME280;29792;48.726;9.248;2022-11-20T03:47:32;96402.28;;;5.21;100.00
44131;BME280;29792;48.726;9.248;2022-11-20T03:49:57;96408.28;;;5.20;100.00
44131;BME280;29792;48.726;9.248;2022-11-20T03:52:22;96397.44;;;5.18;100.00
44131;BME280;29792;48.726;9.248;2022-11-20T03:54:48;96407.69;;;5.17;100.00
44131;BME280;29792;48.726;9.248;2022-11-20T03:57:13;96407.78;;;5.15;100.00
44131;BME280;29792;48.726;9.248;2022-11-20T03:59:38;96413.88;;;5.13;100.00
44131;BME280;29792;48.726;9.248;2022-11-20T04:02:03;96406.50;;;5.10;100.00
44131;BME280;29792;48.726;9.248;2022-11-20T04:04:29;96413.28;;;5.09;100.00
44131;BME280;29792;48.726;9.248;2022-11-20T04:06:54;96405.06;;;5.06;100.00
44131;BME280;29792;48.726;9.248;2022-11-20T04:09:19;96407.69;;;5.04;100.00
44131;BME280;29792;48.726;9.248;2022-11-20T04:11:45;96411.97;;;5.04;100.00
44131;BME280;29792;48.726;9.248;2022-11-20T04:14:15;96410.47;;;5.01;100.00
44131;BME280;29792;48.726;9.248;2022-11-20T04:16:41;96398.69;;;5.00;100.00
44131;BME280;29792;48.726;9.248;2022-11-20T04:19:11;96396.97;;;5.01;100.00
44131;BME280;29792;48.726;9.248;2022-11-20T04:21:37;96400.31;;;5.01;100.00
44131;BME280;29792;48.726;9.248;2022-11-20T04:24:03;96398.78;;;4.98;100.00
44131;BME280;29792;48.726;9.248;2022-11-20T04:26:29;96403.88;;;4.98;100.00
44131;BME280;29792;48.726;9.248;2022-11-20T04:28:56;96393.00;;;4.96;100.00
44131;BME280;29792;48.726;9.248;2022-11-20T04:31:24;96394.03;;;4.94;100.00
44131;BME280;29792;48.726;9.248;2022-11-20T04:33:49;96396.56;;;4.94;100.00
44131;BME280;29792;48.726;9.248;2022-11-20T04:36:19;96390.78;;;4.92;100.00
44131;BME280;29792;48.726;9.248;2022-11-20T04:38:45;96393.31;;;4.92;100.00
44131;BME280;29792;48.726;9.248;2022-11-20T04:41:15;96382.34;;;4.91;100.00
44131;BME280;29792;48.726;9.248;2022-11-20T04:43:40;96382.34;;;4.91;100.00
44131;BME280;29792;48.726;9.248;2022-11-20T04:46:06;96379.72;;;4.93;100.00
44131;BME280;29792;48.726;9.248;2022-11-20T04:48:31;96380.41;;;4.95;100.00
44131;BME280;29792;48.726;9.248;2022-11-20T04:50:57;96392.31;;;4.94;100.00
44131;BME280;29792;48.726;9.248;2022-11-20T04:53:23;96384.69;;;4.94;100.00
44131;BME280;29792;48.726;9.248;2022-11-20T04:55:48;96386.41;;;4.94;100.00
44131;BME280;29792;48.726;9.248;2022-11-20T04:58:14;96382.16;;;4.94;100.00
44131;BME280;29792;48.726;9.248;2022-11-20T05:00:40;96384.69;;;4.94;100.00
44131;BME280;29792;48.726;9.248;2022-11-20T05:03:05;96384.56;;;4.96;100.00
44131;BME280;29792;48.726;9.248;2022-11-20T05:05:31;96388.72;;;4.97;100.00
44131;BME280;29792;48.726;9.248;2022-11-20T05:07:57;96382.75;;;4.98;100.00
44131;BME280;29792;48.726;9.248;2022-11-20T05:10:23;96378.28;;;5.02;100.00
44131;BME280;29792;48.726;9.248;2022-11-20T05:12:49;96374.72;;;5.04;100.00
44131;BME280;29792;48.726;9.248;2022-11-20T05:15:14;96375.41;;;5.06;100.00
44131;BME280;29792;48.726;9.248;2022-11-20T05:17:39;96381.22;;;5.08;100.00
44131;BME280;29792;48.726;9.248;2022-11-20T05:20:05;96385.28;;;5.11;100.00
44131;BME280;29792;48.726;9.248;2022-11-20T05:22:30;96379.16;;;5.13;100.00
44131;BME280;29792;48.726;9.248;2022-11-20T05:24:55;96381.59;;;5.15;100.00
44131;BME280;29792;48.726;9.248;2022-11-20T05:27:21;96383.13;;;5.17;100.00
44131;BME280;29792;48.726;9.248;2022-11-20T05:29:46;96385.44;;;5.20;100.00
44131;BME280;29792;48.726;9.248;2022-11-20T05:32:11;96382.69;;;5.23;100.00
44131;BME280;29792;48.726;9.248;2022-11-20T05:34:36;96378.34;;;5.25;100.00
44131;BME280;29792;48.726;9.248;2022-11-20T05:37:02;96380.63;;;5.28;100.00
44131;BME280;29792;48.726;9.248;2022-11-20T05:39:28;96378.00;;;5.30;100.00
44131;BME280;29792;48.726;9.248;2022-11-20T05:41:53;96376.06;;;5.33;100.00
44131;BME280;29792;48.726;9.248;2022-11-20T05:44:38;96375.97;;;5.35;100.00
44131;BME280;29792;48.726;9.248;2022-11-20T05:47:03;96375.84;;;5.36;100.00
44131;BME280;29792;48.726;9.248;2022-11-20T05:49:28;96375.75;;;5.38;100.00
44131;BME280;29792;48.726;9.248;2022-11-20T05:51:53;96377.38;;;5.39;100.00
44131;BME280;29792;48.726;9.248;2022-11-20T05:54:19;96380.63;;;5.41;100.00
44131;BME280;29792;48.726;9.248;2022-11-20T05:56:44;96383.88;;;5.43;100.00
44131;BME280;29792;48.726;9.248;2022-11-20T05:59:09;96375.31;;;5.44;100.00
44131;BME280;29792;48.726;9.248;2022-11-20T06:01:35;96385.38;;;5.46;100.00
44131;BME280;29792;48.726;9.248;2022-11-20T06:04:01;96386.19;;;5.46;100.00
44131;BME280;29792;48.726;9.248;2022-11-20T06:06:27;96381.81;;;5.48;100.00
44131;BME280;29792;48.726;9.248;2022-11-20T06:08:52;96385.16;;;5.49;100.00
44131;BME280;29792;48.726;9.248;2022-11-20T06:11:17;96385.06;;;5.50;100.00
44131;BME280;29792;48.726;9.248;2022-11-20T06:13:44;96387.47;;;5.52;100.00
44131;BME280;29792;48.726;9.248;2022-11-20T06:16:10;96385.75;;;5.52;100.00
44131;BME280;29792;48.726;9.248;2022-11-20T06:18:37;96391.63;;;5.53;100.00
44131;BME280;29792;48.726;9.248;2022-11-20T06:21:10;96384.00;;;5.53;100.00
44131;BME280;29792;48.726;9.248;2022-11-20T06:23:37;96386.56;;;5.53;100.00
44131;BME280;29792;48.726;9.248;2022-11-20T06:26:10;96386.56;;;5.53;100.00
44131;BME280;29792;48.726;9.248;2022-11-20T06:28:36;96380.66;;;5.52;100.00
44131;BME280;29792;48.726;9.248;2022-11-20T06:31:02;96386.69;;;5.51;100.00
44131;BME280;29792;48.726;9.248;2022-11-20T06:33:27;96380.78;;;5.51;100.00
44131;BME280;29792;48.726;9.248;2022-11-20T06:35:56;96377.53;;;5.49;100.00
44131;BME280;29792;48.726;9.248;2022-11-20T06:38:23;96381.72;;;5.50;100.00
44131;BME280;29792;48.726;9.248;2022-11-20T06:40:48;96381.72;;;5.50;100.00
44131;BME280;29792;48.726;9.248;2022-11-20T06:43:13;96376.63;;;5.50;100.00
44131;BME280;29792;48.726;9.248;2022-11-20T06:45:39;96372.34;;;5.50;100.00
44131;BME280;29792;48.726;9.248;2022-11-20T06:48:04;96375.72;;;5.51;100.00
44131;BME280;29792;48.726;9.248;2022-11-20T06:50:30;96381.59;;;5.51;100.00
44131;BME280;29792;48.726;9.248;2022-11-20T06:52:55;96382.38;;;5.52;100.00
44131;BME280;29792;48.726;9.248;2022-11-20T06:55:20;96381.59;;;5.51;100.00
44131;BME280;29792;48.726;9.248;2022-11-20T06:57:45;96379.16;;;5.50;100.00
44131;BME280;29792;48.726;9.248;2022-11-20T07:00:11;96377.44;;;5.50;100.00
44131;BME280;29792;48.726;9.248;2022-11-20T07:02:36;96392.53;;;5.52;100.00
44131;BME280;29792;48.726;9.248;2022-11-20T07:05:02;96385.97;;;5.49;100.00
44131;BME280;29792;48.726;9.248;2022-11-20T07:07:27;96387.69;;;5.49;100.00
44131;BME280;29792;48.726;9.248;2022-11-20T07:09:52;96392.88;;;5.47;100.00
44131;BME280;29792;48.726;9.248;2022-11-20T07:12:18;96387.00;;;5.47;100.00
44131;BME280;29792;48.726;9.248;2022-11-20T07:14:43;96387.81;;;5.47;100.00
44131;BME280;29792;48.726;9.248;2022-11-20T07:17:08;96393.78;;;5.46;100.00
44131;BME280;29792;48.726;9.248;2022-11-20T07:19:33;96392.97;;;5.46;100.00
44131;BME280;29792;48.726;9.248;2022-11-20T07:21:59;96398.88;;;5.46;100.00
44131;BME280;29792;48.726;9.248;2022-11-20T07:24:24;96398.78;;;5.48;100.00
44131;BME280;29792;48.726;9.248;2022-11-20T07:26:49;96391.97;;;5.48;100.00
44131;BME280;29792;48.726;9.248;2022-11-20T07:29:15;96390.13;;;5.50;100.00
44131;BME280;29792;48.726;9.248;2022-11-20T07:31:41;96398.34;;;5.54;100.00
44131;BME280;29792;48.726;9.248;2022-11-20T07:34:07;96398.94;;;5.57;100.00
44131;BME280;29792;48.726;9.248;2022-11-20T07:36:32;96395.97;;;5.63;100.00
44131;BME280;29792;48.726;9.248;2022-11-20T07:38:57;96398.97;;;5.68;100.00
44131;BME280;29792;48.726;9.248;2022-11-20T07:41:23;96402.94;;;5.72;100.00
44131;BME280;29792;48.726;9.248;2022-11-20T07:43:48;96409.56;;;5.75;100.00
44131;BME280;29792;48.726;9.248;2022-11-20T07:46:13;96408.50;;;5.78;100.00
44131;BME280;29792;48.726;9.248;2022-11-20T07:48:39;96409.13;;;5.81;100.00
44131;BME280;29792;48.726;9.248;2022-11-20T07:51:04;96408.19;;;5.82;100.00
44131;BME280;29792;48.726;9.248;2022-11-20T07:53:30;96400.22;;;5.87;100.00
44131;BME280;29792;48.726;9.248;2022-11-20T07:55:59;96400.75;;;5.92;100.00
44131;BME280;29792;48.726;9.248;2022-11-20T07:58:24;96409.69;;;5.97;100.00
44131;BME280;29792;48.726;9.248;2022-11-20T08:00:49;96405.16;;;6.01;100.00
44131;BME280;29792;48.726;9.248;2022-11-20T08:03:15;96413.75;;;6.11;100.00
44131;BME280;29792;48.726;9.248;2022-11-20T08:05:40;96413.91;;;6.21;100.00
44131;BME280;29792;48.726;9.248;2022-11-20T08:08:05;96415.56;;;6.33;100.00
44131;BME280;29792;48.726;9.248;2022-11-20T08:10:32;96413.50;;;6.38;100.00
44131;BME280;29792;48.726;9.248;2022-11-20T08:12:57;96415.13;;;6.39;100.00
44131;BME280;29792;48.726;9.248;2022-11-20T08:15:41;96428.06;;;6.36;100.00
44131;BME280;29792;48.726;9.248;2022-11-20T08:18:09;96427.16;;;6.37;100.00
44131;BME280;29792;48.726;9.248;2022-11-20T08:20:36;96429.69;;;6.37;100.00
44131;BME280;29792;48.726;9.248;2022-11-20T08:23:03;96427.25;;;6.35;100.00
44131;BME280;29792;48.726;9.248;2022-11-20T08:25:31;96430.81;;;6.33;100.00
44131;BME280;29792;48.726;9.248;2022-11-20T08:28:01;96426.69;;;6.32;100.00
44131;BME280;29792;48.726;9.248;2022-11-20T08:30:27;96424.00;;;6.33;100.00
44131;BME280;29792;48.726;9.248;2022-11-20T08:32:53;96435.69;;;6.36;100.00
44131;BME280;29792;48.726;9.248;2022-11-20T08:35:19;96428.97;;;6.35;100.00
44131;BME280;29792;48.726;9.248;2022-11-20T08:37:47;96433.97;;;6.36;100.00
44131;BME280;29792;48.726;9.248;2022-11-20T08:40:13;96439.75;;;6.38;100.00
44131;BME280;29792;48.726;9.248;2022-11-20T08:42:48;96433.63;;;6.41;100.00
44131;BME280;29792;48.726;9.248;2022-11-20T08:45:14;96441.94;;;6.43;100.00
44131;BME280;29792;48.726;9.248;2022-11-20T08:47:40;96440.94;;;6.45;100.00
44131;BME280;29792;48.726;9.248;2022-11-20T08:50:06;96438.28;;;6.47;100.00
44131;BME280;29792;48.726;9.248;2022-11-20T08:52:32;96433.75;;;6.50;100.00
44131;BME280;29792;48.726;9.248;2022-11-20T08:54:57;96442.09;;;6.53;100.00
44131;BME280;29792;48.726;9.248;2022-11-20T08:57:23;96435.28;;;6.53;100.00
44131;BME280;29792;48.726;9.248;2022-11-20T08:59:48;96433.44;;;6.55;100.00
44131;BME280;29792;48.726;9.248;2022-11-20T09:02:13;96440.81;;;6.58;100.00
44131;BME280;29792;48.726;9.248;2022-11-20T09:04:39;96437.72;;;6.66;100.00
44131;BME280;29792;48.726;9.248;2022-11-20T09:07:04;96445.75;;;6.72;100.00
44131;BME280;29792;48.726;9.248;2022-11-20T09:09:29;96439.28;;;6.79;100.00
44131;BME280;29792;48.726;9.248;2022-11-20T09:11:54;96448.19;;;6.85;100.00
44131;BME280;29792;48.726;9.248;2022-11-20T09:14:20;96445.16;;;6.91;100.00
44131;BME280;29792;48.726;9.248;2022-11-20T09:16:46;96450.97;;;6.93;100.00
44131;BME280;29792;48.726;9.248;2022-11-20T09:19:11;96458.94;;;7.00;100.00
44131;BME280;29792;48.726;9.248;2022-11-20T09:21:37;96454.34;;;7.05;100.00
44131;BME280;29792;48.726;9.248;2022-11-20T09:24:02;96449.25;;;7.05;100.00
44131;BME280;29792;48.726;9.248;2022-11-20T09:26:28;96453.63;;;7.03;100.00
44131;BME280;29792;48.726;9.248;2022-11-20T09:28:53;96450.97;;;7.04;100.00
44131;BME280;29792;48.726;9.248;2022-11-20T09:31:22;96452.59;;;7.05;100.00
44131;BME280;29792;48.726;9.248;2022-11-20T09:33:48;96469.38;;;7.08;100.00
44131;BME280;29792;48.726;9.248;2022-11-20T09:36:13;96457.34;;;7.10;100.00
44131;BME280;29792;48.726;9.248;2022-11-20T09:38:39;96457.13;;;7.13;100.00
44131;BME280;29792;48.726;9.248;2022-11-20T09:41:06;96464.50;;;7.16;100.00
44131;BME280;29792;48.726;9.248;2022-11-20T09:43:58;96458.59;;;7.15;100.00
44131;BME280;29792;48.726;9.248;2022-11-20T09:46:59;96466.25;;;7.15;100.00
44131;BME280;29792;48.726;9.248;2022-11-20T09:50:10;96461.25;;;7.14;100.00
44131;BME280;29792;48.726;9.248;2022-11-20T09:52:55;96466.25;;;7.15;100.00
44131;BME280;29792;48.726;9.248;2022-11-20T09:55:24;96473.78;;;7.17;100.00
44131;BME280;29792;48.726;9.248;2022-11-20T09:57:51;96462.66;;;7.18;100.00
44131;BME280;29792;48.726;9.248;2022-11-20T10:00:17;96465.09;;;7.19;100.00
44131;BME280;29792;48.726;9.248;2022-11-20T10:02:58;96461.50;;;7.22;100.00
44131;BME280;29792;48.726;9.248;2022-11-20T10:05:41;96462.31;;;7.22;100.00
44131;BME280;29792;48.726;9.248;2022-11-20T10:10:51;96467.88;;;7.27;100.00
44131;BME280;29792;48.726;9.248;2022-11-20T10:19:29;96471.00;;;7.20;100.00
44131;BME280;29792;48.726;9.248;2022-11-20T10:22:40;96469.28;;;7.20;100.00
44131;BME280;29792;48.726;9.248;2022-11-20T10:30:14;96471.94;;;7.19;100.00
44131;BME280;29792;48.726;9.248;2022-11-20T10:32:43;96466.59;;;7.22;100.00
44131;BME280;29792;48.726;9.248;2022-11-20T10:35:28;96473.56;;;7.20;100.00
44131;BME280;29792;48.726;9.248;2022-11-20T10:38:00;96476.31;;;7.17;100.00
44131;BME280;29792;48.726;9.248;2022-11-20T10:40:39;96483.16;;;7.16;100.00
44131;BME280;29792;48.726;9.248;2022-11-20T10:43:15;96479.91;;;7.14;100.00
44131;BME280;29792;48.726;9.248;2022-11-20T10:45:49;96475.16;;;7.10;100.00
44131;BME280;29792;48.726;9.248;2022-11-20T10:48:22;96477.13;;;7.06;100.00
44131;BME280;29792;48.726;9.248;2022-11-20T10:53:56;96470.97;;;6.98;100.00
44131;BME280;29792;48.726;9.248;2022-11-20T10:56:34;96475.38;;;6.96;100.00
44131;BME280;29792;48.726;9.248;2022-11-20T10:59:11;96472.84;;;6.96;100.00
44131;BME280;29792;48.726;9.248;2022-11-20T11:01:41;96473.97;;;6.92;100.00
44131;BME280;29792;48.726;9.248;2022-11-20T11:04:36;96466.59;;;6.88;100.00
44131;BME280;29792;48.726;9.248;2022-11-20T11:07:10;96465.88;;;6.86;100.00
44131;BME280;29792;48.726;9.248;2022-11-20T11:09:46;96463.44;;;6.85;100.00
44131;BME280;29792;48.726;9.248;2022-11-20T11:12:12;96462.41;;;6.87;100.00
44131;BME280;29792;48.726;9.248;2022-11-20T11:14:43;96464.97;;;6.87;100.00
44131;BME280;29792;48.726;9.248;2022-11-20T11:17:20;96459.53;;;6.92;100.00
44131;BME280;29792;48.726;9.248;2022-11-20T11:19:57;96453.28;;;6.96;100.00
44131;BME280;29792;48.726;9.248;2022-11-20T11:22:22;96455.25;;;7.04;100.00
44131;BME280;29792;48.726;9.248;2022-11-20T11:24:52;96444.50;;;7.11;100.00
44131;BME280;29792;48.726;9.248;2022-11-20T11:27:18;96438.94;;;7.17;100.00
44131;BME280;29792;48.726;9.248;2022-11-20T11:29:46;96438.47;;;7.23;100.00
44131;BME280;29792;48.726;9.248;2022-11-20T11:32:18;96430.50;;;7.28;100.00
44131;BME280;29792;48.726;9.248;2022-11-20T11:35:11;96422.16;;;7.37;100.00
44131;BME280;29792;48.726;9.248;2022-11-20T11:37:43;96419.81;;;7.45;100.00
44131;BME280;29792;48.726;9.248;2022-11-20T11:40:11;96417.72;;;7.50;100.00
44131;BME280;29792;48.726;9.248;2022-11-20T11:43:02;96422.31;;;7.56;100.00
44131;BME280;29792;48.726;9.248;2022-11-20T11:45:29;96413.38;;;7.73;100.00
44131;BME280;29792;48.726;9.248;2022-11-20T11:47:57;96412.41;;;7.85;100.00
44131;BME280;29792;48.726;9.248;2022-11-20T11:50:28;96416.22;;;7.91;100.00
44131;BME280;29792;48.726;9.248;2022-11-20T11:53:09;96411.56;;;7.96;100.00
44131;BME280;29792;48.726;9.248;2022-11-20T11:55:44;96404.56;;;8.09;100.00
44131;BME280;29792;48.726;9.248;2022-11-20T12:00:54;96397.72;;;8.41;100.00
44131;BME280;29792;48.726;9.248;2022-11-20T12:03:32;96395.25;;;8.61;100.00
44131;BME280;29792;48.726;9.248;2022-11-20T12:06:04;96391.44;;;8.76;100.00
44131;BME280;29792;48.726;9.248;2022-11-20T12:11:33;96392.81;;;8.80;100.00
44131;BME280;29792;48.726;9.248;2022-11-20T12:14:19;96387.81;;;8.78;100.00
44131;BME280;29792;48.726;9.248;2022-11-20T12:16:49;96394.44;;;8.81;100.00
44131;BME280;29792;48.726;9.248;2022-11-20T12:19:15;96391.59;;;8.84;100.00
44131;BME280;29792;48.726;9.248;2022-11-20T12:22:01;96386.19;;;8.98;100.00
44131;BME280;29792;48.726;9.248;2022-11-20T12:27:08;96376.09;;;9.37;98.36
44131;BME280;29792;48.726;9.248;2022-11-20T12:29:49;96378.00;;;9.54;97.35
44131;BME280;29792;48.726;9.248;2022-11-20T12:40:32;96357.66;;;9.43;90.11
44131;BME280;29792;48.726;9.248;2022-11-20T12:43:11;96363.19;;;9.48;90.32
44131;BME280;29792;48.726;9.248;2022-11-20T12:46:08;96366.44;;;9.60;90.65
44131;BME280;29792;48.726;9.248;2022-11-20T13:00:14;96381.06;;;9.38;86.53
44131;BME280;29792;48.726;9.248;2022-11-20T13:03:09;96372.47;;;9.49;88.44
44131;BME280;29792;48.726;9.248;2022-11-20T13:05:59;96381.75;;;9.40;83.74
44131;BME280;29792;48.726;9.248;2022-11-20T13:08:35;96364.72;;;9.89;85.13
44131;BME280;29792;48.726;9.248;2022-11-20T13:11:03;96372.41;;;10.27;81.18
44131;BME280;29792;48.726;9.248;2022-11-20T13:16:17;96369.69;;;10.00;79.70
44131;BME280;29792;48.726;9.248;2022-11-20T13:18:45;96367.41;;;9.78;80.44
44131;BME280;29792;48.726;9.248;2022-11-20T13:21:44;96374.22;;;9.58;80.80
44131;BME280;29792;48.726;9.248;2022-11-20T13:24:21;96373.13;;;9.41;80.69
44131;BME280;29792;48.726;9.248;2022-11-20T13:29:27;96367.78;;;9.64;78.93
44131;BME280;29792;48.726;9.248;2022-11-20T13:32:02;96361.19;;;9.61;77.37
44131;BME280;29792;48.726;9.248;2022-11-20T13:34:29;96364.66;;;9.50;75.94
44131;BME280;29792;48.726;9.248;2022-11-20T13:36:57;96355.63;;;9.37;76.50
44131;BME280;29792;48.726;9.248;2022-11-20T13:39:27;96352.94;;;9.29;77.29
44131;BME280;29792;48.726;9.248;2022-11-20T13:41:55;96352.94;;;9.38;78.03
44131;BME280;29792;48.726;9.248;2022-11-20T13:44:35;96346.09;;;9.58;78.33
44131;BME280;29792;48.726;9.248;2022-11-20T13:47:03;96341.16;;;9.56;77.32
44131;BME280;29792;48.726;9.248;2022-11-20T13:49:39;96347.69;;;9.49;77.62
44131;BME280;29792;48.726;9.248;2022-11-20T13:55:42;96348.22;;;9.34;77.36
44131;BME280;29792;48.726;9.248;2022-11-20T14:01:00;96338.72;;;9.55;77.74
44131;BME280;29792;48.726;9.248;2022-11-20T14:03:29;96346.50;;;9.53;76.78
44131;BME280;29792;48.726;9.248;2022-11-20T14:05:59;96353.50;;;9.51;76.96